createdAt,value
2022-10-31T00:00:57.148Z,95447.31
2022-10-31T00:03:23.861Z,95463.91
2022-10-31T00:05:51.258Z,95451.13
2022-10-31T00:08:18.696Z,95468.28
2022-10-31T00:10:46.691Z,95462.47
2022-10-31T00:13:14.717Z,95462.81
2022-10-31T00:15:41.865Z,95454.88
2022-10-31T00:18:10.198Z,95469.66
2022-10-31T00:20:36.974Z,95466.34
2022-10-31T00:23:05.519Z,95449.47
2022-10-31T00:25:36.785Z,95453.91
2022-10-31T00:28:04.791Z,95458.25
2022-10-31T00:30:31.677Z,95462.97
2022-10-31T00:32:58.574Z,95458.09
2022-10-31T00:35:25.711Z,95457.56
2022-10-31T00:37:53.539Z,95453.75
2022-10-31T00:40:20.152Z,95454.47
2022-10-31T00:42:46.743Z,95457.66
2022-10-31T00:45:13.521Z,95451.72
2022-10-31T00:47:40.065Z,95450.78
2022-10-31T00:50:07.117Z,95428.16
2022-10-31T00:52:33.989Z,95440.88
2022-10-31T00:55:00.546Z,95443.13
2022-10-31T00:57:27.129Z,95436.34
2022-10-31T00:59:53.771Z,95449.97
2022-10-31T01:02:20.521Z,95457.81
2022-10-31T01:04:47.200Z,95449.97
2022-10-31T01:07:15.097Z,95446.34
2022-10-31T01:09:41.891Z,95447.56
2022-10-31T01:12:09.137Z,95453.81
2022-10-31T01:14:35.773Z,95442.47
2022-10-31T01:17:02.448Z,95457.31
2022-10-31T01:19:29.086Z,95458.75
2022-10-31T01:21:56.589Z,95455.59
2022-10-31T01:24:23.476Z,95457.09
2022-10-31T01:26:50.087Z,95455.81
2022-10-31T01:29:16.728Z,95455.25
2022-10-31T01:31:43.352Z,95462.22
2022-10-31T01:34:14.860Z,95453.03
2022-10-31T01:36:42.250Z,95451.22
2022-10-31T01:39:12.626Z,95450.78
2022-10-31T01:41:45.595Z,95466.53
2022-10-31T01:44:15.098Z,95460.06
2022-10-31T01:46:57.042Z,95453.38
2022-10-31T01:49:42.183Z,95449.44
2022-10-31T01:52:08.671Z,95461.25
2022-10-31T01:54:40.877Z,95462.78
2022-10-31T01:57:08.851Z,95459.41
2022-10-31T01:59:40.075Z,95460.16
2022-10-31T02:02:07.550Z,95469.81
2022-10-31T02:04:35.759Z,95466.25
2022-10-31T02:07:09.634Z,95455.50
2022-10-31T02:09:38.290Z,95461.00
2022-10-31T02:12:06.787Z,95460.78
2022-10-31T02:14:34.346Z,95450.78
2022-10-31T02:17:00.909Z,95460.03
2022-10-31T02:19:52.045Z,95456.06
2022-10-31T02:22:47.720Z,95461.84
2022-10-31T02:25:35.596Z,95470.38
2022-10-31T02:28:11.317Z,95460.34
2022-10-31T02:31:13.646Z,95484.91
2022-10-31T02:33:56.782Z,95479.66
2022-10-31T02:36:29.146Z,95488.75
2022-10-31T02:39:10.662Z,95487.50
2022-10-31T02:41:54.342Z,95482.50
2022-10-31T02:44:31.724Z,95477.91
2022-10-31T02:47:15.015Z,95482.75
2022-10-31T02:49:50.032Z,95494.34
2022-10-31T02:52:26.650Z,95493.97
2022-10-31T02:54:53.400Z,95493.84
2022-10-31T02:57:31.894Z,95487.44
2022-10-31T03:00:03.096Z,95487.41
2022-10-31T03:03:15.895Z,95499.44
2022-10-31T03:06:00.328Z,95494.00
2022-10-31T03:08:36.128Z,95500.75
2022-10-31T03:11:06.303Z,95496.81
2022-10-31T03:13:44.540Z,95500.59
2022-10-31T03:16:24.886Z,95501.91
2022-10-31T03:19:06.653Z,95495.91
2022-10-31T03:22:08.287Z,95511.28
2022-10-31T03:24:39.490Z,95500.66
2022-10-31T03:27:10.988Z,95503.41
2022-10-31T03:29:39.787Z,95508.88
2022-10-31T03:32:08.721Z,95509.00
2022-10-31T03:34:38.758Z,95504.13
2022-10-31T03:37:08.703Z,95513.56
2022-10-31T03:39:37.404Z,95514.16
2022-10-31T03:42:10.085Z,95520.97
2022-10-31T03:44:38.979Z,95522.81
2022-10-31T03:47:05.903Z,95527.34
2022-10-31T03:49:33.870Z,95522.47
2022-10-31T03:52:14.733Z,95519.13
2022-10-31T03:54:47.264Z,95528.78
2022-10-31T03:57:25.473Z,95536.38
2022-10-31T03:59:59.921Z,95532.13
2022-10-31T04:02:32.265Z,95533.03
2022-10-31T04:05:00.218Z,95530.31
2022-10-31T04:07:32.521Z,95516.91
2022-10-31T04:10:01.253Z,95528.50
2022-10-31T04:12:30.654Z,95542.63
2022-10-31T04:14:58.660Z,95538.47
2022-10-31T04:17:30.600Z,95523.28
2022-10-31T04:20:00.845Z,95542.59
2022-10-31T04:22:27.658Z,95531.50
2022-10-31T04:24:54.193Z,95539.38
2022-10-31T04:27:20.824Z,95549.66
2022-10-31T04:29:50.695Z,95547.56
2022-10-31T04:32:17.761Z,95550.78
2022-10-31T04:34:44.360Z,95540.47
2022-10-31T04:37:10.941Z,95547.88
2022-10-31T04:39:37.556Z,95552.13
2022-10-31T04:42:04.213Z,95537.28
2022-10-31T04:44:30.869Z,95541.22
2022-10-31T04:46:58.593Z,95548.94
2022-10-31T04:49:25.197Z,95550.81
2022-10-31T04:51:51.800Z,95552.34
2022-10-31T04:54:18.621Z,95556.75
2022-10-31T04:56:45.297Z,95561.75
2022-10-31T04:59:11.923Z,95561.25
2022-10-31T05:01:38.529Z,95560.63
2022-10-31T05:04:05.290Z,95572.31
2022-10-31T05:06:31.996Z,95566.69
2022-10-31T05:08:58.612Z,95567.38
2022-10-31T05:11:25.332Z,95574.97
2022-10-31T05:13:51.901Z,95588.00
2022-10-31T05:16:18.746Z,95576.66
2022-10-31T05:18:45.495Z,95577.03
2022-10-31T05:21:12.336Z,95578.47
2022-10-31T05:23:39.760Z,95576.66
2022-10-31T05:26:07.607Z,95575.59
2022-10-31T05:28:34.513Z,95588.47
2022-10-31T05:31:01.141Z,95574.97
2022-10-31T05:33:27.741Z,95583.75
2022-10-31T05:35:54.341Z,95589.81
2022-10-31T05:38:20.910Z,95586.81
2022-10-31T05:40:47.474Z,95595.50
2022-10-31T05:43:14.170Z,95604.34
2022-10-31T05:45:40.730Z,95588.66
2022-10-31T05:48:07.330Z,95592.22
2022-10-31T05:50:33.903Z,95595.09
2022-10-31T05:53:05.397Z,95596.44
2022-10-31T05:55:33.259Z,95606.75
2022-10-31T05:58:00.329Z,95589.25
2022-10-31T06:00:28.650Z,95606.16
2022-10-31T06:03:00.860Z,95600.91
2022-10-31T06:05:27.977Z,95614.53
2022-10-31T06:07:54.638Z,95617.00
2022-10-31T06:10:21.960Z,95612.94
2022-10-31T06:12:49.512Z,95624.78
2022-10-31T06:15:22.593Z,95620.91
2022-10-31T06:18:02.004Z,95633.41
2022-10-31T06:20:29.107Z,95628.47
2022-10-31T06:22:55.700Z,95631.53
2022-10-31T06:25:22.387Z,95632.19
2022-10-31T06:27:49.101Z,95638.75
2022-10-31T06:30:15.862Z,95638.75
2022-10-31T06:32:42.484Z,95639.03
2022-10-31T06:35:09.367Z,95641.13
2022-10-31T06:37:36.118Z,95649.91
2022-10-31T06:40:02.857Z,95651.75
2022-10-31T06:42:29.443Z,95642.50
2022-10-31T06:44:56.079Z,95654.44
2022-10-31T06:47:22.620Z,95649.72
2022-10-31T06:49:49.184Z,95656.53
2022-10-31T06:52:15.903Z,95666.66
2022-10-31T06:54:42.574Z,95661.84
2022-10-31T06:57:09.248Z,95650.78
2022-10-31T06:59:35.875Z,95655.63
2022-10-31T07:02:02.551Z,95655.34
2022-10-31T07:04:29.433Z,95646.06
2022-10-31T07:06:55.959Z,95654.50
2022-10-31T07:09:22.877Z,95662.69
2022-10-31T07:11:49.514Z,95661.84
2022-10-31T07:14:16.204Z,95660.16
2022-10-31T07:16:42.763Z,95658.25
2022-10-31T07:19:09.392Z,95641.41
2022-10-31T07:21:35.975Z,95652.56
2022-10-31T07:24:02.595Z,95649.56
2022-10-31T07:26:29.211Z,95637.25
2022-10-31T07:28:55.744Z,95643.75
2022-10-31T07:31:22.392Z,95640.50
2022-10-31T07:33:48.941Z,95637.44
2022-10-31T07:36:15.684Z,95627.38
2022-10-31T07:38:42.493Z,95637.00
2022-10-31T07:41:09.231Z,95642.84
2022-10-31T07:43:35.832Z,95643.06
2022-10-31T07:46:02.488Z,95633.31
2022-10-31T07:48:29.051Z,95640.06
2022-10-31T07:50:56.271Z,95635.00
2022-10-31T07:53:22.892Z,95635.41
2022-10-31T07:55:49.567Z,95640.06
2022-10-31T07:58:17.969Z,95631.22
2022-10-31T08:00:47.542Z,95632.88
2022-10-31T08:03:17.148Z,95629.38
2022-10-31T08:05:46.838Z,95626.97
2022-10-31T08:08:14.444Z,95639.75
2022-10-31T08:10:41.702Z,95633.75
2022-10-31T08:13:11.292Z,95634.84
2022-10-31T08:15:40.513Z,95628.06
2022-10-31T08:18:11.503Z,95634.03
2022-10-31T08:20:38.058Z,95614.72
2022-10-31T08:23:06.284Z,95642.91
2022-10-31T08:25:38.240Z,95639.53
2022-10-31T08:28:06.582Z,95634.47
2022-10-31T08:30:35.073Z,95621.34
2022-10-31T08:33:13.509Z,95628.34
2022-10-31T08:35:40.852Z,95628.38
2022-10-31T08:38:09.317Z,95611.25
2022-10-31T08:40:37.941Z,95615.81
2022-10-31T08:43:07.993Z,95623.22
2022-10-31T08:45:35.794Z,95628.94
2022-10-31T08:48:05.953Z,95625.69
2022-10-31T08:50:35.024Z,95622.19
2022-10-31T08:53:20.488Z,95626.38
2022-10-31T08:55:48.111Z,95623.53
2022-10-31T08:58:17.141Z,95628.59
2022-10-31T09:00:44.694Z,95622.28
2022-10-31T09:03:14.054Z,95635.09
2022-10-31T09:05:41.353Z,95629.53
2022-10-31T09:08:14.773Z,95634.53
2022-10-31T09:10:43.241Z,95632.06
2022-10-31T09:13:18.672Z,95625.78
2022-10-31T09:15:47.204Z,95628.44
2022-10-31T09:18:15.660Z,95623.88
2022-10-31T09:20:44.507Z,95626.28
2022-10-31T09:23:13.334Z,95613.81
2022-10-31T09:25:40.865Z,95614.06
2022-10-31T09:28:09.941Z,95617.72
2022-10-31T09:30:37.018Z,95616.53
2022-10-31T09:33:06.151Z,95618.00
2022-10-31T09:35:33.676Z,95620.19
2022-10-31T09:38:09.939Z,95619.22
2022-10-31T09:40:48.247Z,95618.50
2022-10-31T09:43:14.745Z,95618.75
2022-10-31T09:46:17.539Z,95611.09
2022-10-31T09:48:56.277Z,95603.16
2022-10-31T09:51:36.226Z,95608.59
2022-10-31T09:54:06.820Z,95602.81
2022-10-31T09:56:34.115Z,95607.34
2022-10-31T09:59:03.310Z,95602.19
2022-10-31T10:01:29.915Z,95603.63
2022-10-31T10:04:01.657Z,95592.59
2022-10-31T10:06:36.905Z,95595.78
2022-10-31T10:09:04.008Z,95596.06
2022-10-31T10:11:41.437Z,95597.78
2022-10-31T10:14:36.785Z,95587.22
2022-10-31T10:17:23.487Z,95583.88
2022-10-31T10:20:03.342Z,95572.81
2022-10-31T10:22:36.099Z,95582.28
2022-10-31T10:25:20.749Z,95574.78
2022-10-31T10:28:04.597Z,95568.81
2022-10-31T10:30:43.134Z,95562.22
2022-10-31T10:33:14.429Z,95568.22
2022-10-31T10:35:48.815Z,95559.81
2022-10-31T10:38:24.929Z,95559.56
2022-10-31T10:40:53.996Z,95551.97
2022-10-31T10:43:40.218Z,95545.81
2022-10-31T10:46:28.476Z,95552.50
2022-10-31T10:49:14.081Z,95543.97
2022-10-31T10:52:35.267Z,95544.75
2022-10-31T10:55:23.987Z,95541.50
2022-10-31T10:58:01.777Z,95543.69
2022-10-31T11:00:33.230Z,95497.41
2022-10-31T11:03:00.330Z,95535.03
2022-10-31T11:05:48.217Z,95536.06
2022-10-31T11:08:28.460Z,95537.00
2022-10-31T11:11:18.262Z,95538.09
2022-10-31T11:13:47.478Z,95524.88
2022-10-31T11:16:43.571Z,95525.63
2022-10-31T11:19:13.156Z,95520.84
2022-10-31T11:21:39.795Z,95513.78
2022-10-31T11:24:12.144Z,95513.72
2022-10-31T11:26:40.451Z,95514.28
2022-10-31T11:29:15.673Z,95510.25
2022-10-31T11:31:44.247Z,95512.91
2022-10-31T11:34:28.654Z,95509.03
2022-10-31T11:36:58.226Z,95507.88
2022-10-31T11:39:25.719Z,95495.53
2022-10-31T11:41:54.341Z,95501.69
2022-10-31T11:44:27.807Z,95482.69
2022-10-31T11:47:01.206Z,95485.28
2022-10-31T11:49:37.349Z,95494.38
2022-10-31T11:52:21.701Z,95495.41
2022-10-31T11:55:01.794Z,95479.88
2022-10-31T11:57:32.767Z,95483.34
2022-10-31T12:00:05.747Z,95485.38
2022-10-31T12:02:32.660Z,95483.50
2022-10-31T12:05:12.186Z,95476.38
2022-10-31T12:07:38.862Z,95478.03
2022-10-31T12:10:12.817Z,95476.56
2022-10-31T12:13:09.788Z,95479.38
2022-10-31T12:15:39.208Z,95464.69
2022-10-31T12:18:28.409Z,95479.56
2022-10-31T12:21:00.900Z,95478.03
2022-10-31T12:23:39.404Z,95481.22
2022-10-31T12:26:30.143Z,95475.19
2022-10-31T12:29:34.551Z,95468.56
2022-10-31T12:32:22.548Z,95474.22
2022-10-31T12:34:56.820Z,95459.19
2022-10-31T12:37:49.355Z,95463.91
2022-10-31T12:40:41.280Z,95464.53
2022-10-31T12:43:16.752Z,95474.94
2022-10-31T12:45:59.110Z,95464.28
2022-10-31T12:48:34.310Z,95465.63
2022-10-31T12:51:24.550Z,95467.59
2022-10-31T12:53:57.728Z,95464.81
2022-10-31T12:56:39.211Z,95465.84
2022-10-31T12:59:32.545Z,95465.75
2022-10-31T13:02:14.621Z,95467.84
2022-10-31T13:04:57.624Z,95463.59
2022-10-31T13:07:48.736Z,95459.06
2022-10-31T13:10:20.575Z,95464.75
2022-10-31T13:12:50.292Z,95460.88
2022-10-31T13:15:28.150Z,95462.22
2022-10-31T13:17:58.597Z,95459.41
2022-10-31T13:20:34.072Z,95451.19
2022-10-31T13:23:49.159Z,95455.50
2022-10-31T13:26:14.132Z,95449.97
2022-10-31T13:29:01.307Z,95462.19
2022-10-31T13:31:28.485Z,95458.97
2022-10-31T13:34:00.476Z,95457.81
2022-10-31T13:36:50.498Z,95459.38
2022-10-31T13:39:25.045Z,95456.91
2022-10-31T13:42:03.123Z,95463.25
2022-10-31T13:44:35.862Z,95461.06
2022-10-31T13:47:05.210Z,95471.72
2022-10-31T13:49:31.840Z,95468.06
2022-10-31T13:52:10.397Z,95455.16
2022-10-31T13:54:38.539Z,95463.09
2022-10-31T13:57:17.032Z,95467.03
2022-10-31T13:59:55.807Z,95473.16
2022-10-31T14:02:37.076Z,95463.19
2022-10-31T14:05:34.427Z,95467.56
2022-10-31T14:08:06.814Z,95464.41
2022-10-31T14:10:47.839Z,95463.84
2022-10-31T14:13:35.445Z,95474.25
2022-10-31T14:16:07.859Z,95465.94
2022-10-31T14:18:40.418Z,95470.94
2022-10-31T14:21:23.571Z,95483.56
2022-10-31T14:23:54.128Z,95478.97
2022-10-31T14:26:27.633Z,95477.34
2022-10-31T14:28:57.171Z,95488.16
2022-10-31T14:31:37.976Z,95477.44
2022-10-31T14:34:35.691Z,95491.16
2022-10-31T14:37:26.989Z,95491.50
2022-10-31T14:40:27.915Z,95490.06
2022-10-31T14:43:13.169Z,95483.03
2022-10-31T14:46:17.168Z,95486.56
2022-10-31T14:49:03.690Z,95485.41
2022-10-31T14:51:39.615Z,95482.84
2022-10-31T14:54:12.110Z,95491.31
2022-10-31T14:56:48.014Z,95488.78
2022-10-31T14:59:20.119Z,95485.16
2022-10-31T15:02:03.196Z,95483.34
2022-10-31T15:04:33.666Z,95488.31
2022-10-31T15:07:24.353Z,95493.44
2022-10-31T15:10:04.293Z,95479.00
2022-10-31T15:12:32.610Z,95489.50
2022-10-31T15:15:12.590Z,95488.41
2022-10-31T15:17:45.519Z,95490.97
2022-10-31T15:20:13.481Z,95492.59
2022-10-31T15:22:40.275Z,95494.69
2022-10-31T15:25:14.619Z,95496.03
2022-10-31T15:27:41.777Z,95502.47
2022-10-31T15:30:21.230Z,95496.97
2022-10-31T15:32:57.577Z,95503.16
2022-10-31T15:35:30.754Z,95492.69
2022-10-31T15:38:00.058Z,95506.38
2022-10-31T15:40:28.020Z,95500.66
2022-10-31T15:43:02.945Z,95503.50
2022-10-31T15:45:31.660Z,95501.56
2022-10-31T15:48:02.152Z,95506.00
2022-10-31T15:50:42.173Z,95509.28
2022-10-31T15:53:20.621Z,95505.75
2022-10-31T15:55:54.508Z,95507.06
2022-10-31T15:58:21.736Z,95512.38
2022-10-31T16:01:00.341Z,95509.84
2022-10-31T16:03:32.267Z,95519.72
2022-10-31T16:06:00.217Z,95528.59
2022-10-31T16:08:29.730Z,95522.84
2022-10-31T16:10:58.804Z,95531.66
2022-10-31T16:13:29.278Z,95531.72
2022-10-31T16:16:28.770Z,95523.69
2022-10-31T16:18:47.830Z,95539.78
2022-10-31T16:21:14.774Z,95542.56
2022-10-31T16:23:50.643Z,95533.28
2022-10-31T16:26:19.553Z,95554.41
2022-10-31T16:29:02.603Z,95542.09
2022-10-31T16:31:36.881Z,95546.38
2022-10-31T16:34:26.030Z,95553.94
2022-10-31T16:36:53.646Z,95544.41
2022-10-31T16:39:20.514Z,95560.72
2022-10-31T16:41:53.362Z,95564.94
2022-10-31T16:44:25.710Z,95558.13
2022-10-31T16:47:11.172Z,95572.91
2022-10-31T16:49:37.774Z,95563.38
2022-10-31T16:52:04.409Z,95568.16
2022-10-31T16:54:31.041Z,95574.91
2022-10-31T16:57:00.756Z,95565.38
2022-10-31T16:59:28.251Z,95580.19
2022-10-31T17:01:55.981Z,95570.13
2022-10-31T17:04:22.974Z,95582.38
2022-10-31T17:06:49.557Z,95581.81
2022-10-31T17:09:16.164Z,95573.94
2022-10-31T17:11:49.614Z,95579.50
2022-10-31T17:14:17.360Z,95585.00
2022-10-31T17:16:44.185Z,95580.63
2022-10-31T17:19:11.922Z,95598.19
2022-10-31T17:21:39.400Z,95584.09
2022-10-31T17:24:06.826Z,95590.84
2022-10-31T17:26:33.662Z,95600.38
2022-10-31T17:29:02.041Z,95602.56
2022-10-31T17:31:31.810Z,95588.84
2022-10-31T17:34:01.995Z,95609.72
2022-10-31T17:36:30.495Z,95601.59
2022-10-31T17:38:57.327Z,95608.53
2022-10-31T17:41:23.930Z,95596.44
2022-10-31T17:43:55.614Z,95612.16
2022-10-31T17:46:22.233Z,95610.53
2022-10-31T17:48:48.878Z,95614.06
2022-10-31T17:51:15.465Z,95606.28
2022-10-31T17:53:42.075Z,95620.72
2022-10-31T17:56:09.559Z,95609.31
2022-10-31T17:58:37.176Z,95613.47
2022-10-31T18:01:09.820Z,95622.03
2022-10-31T18:03:36.691Z,95613.47
2022-10-31T18:06:03.371Z,95611.19
2022-10-31T18:08:35.132Z,95625.47
2022-10-31T18:11:09.190Z,95615.09
2022-10-31T18:13:37.807Z,95619.84
2022-10-31T18:16:12.366Z,95621.94
2022-10-31T18:18:39.625Z,95628.81
2022-10-31T18:21:06.493Z,95626.78
2022-10-31T18:23:33.394Z,95630.22
2022-10-31T18:26:00.065Z,95629.25
2022-10-31T18:28:26.652Z,95633.72
2022-10-31T18:30:53.496Z,95640.16
2022-10-31T18:33:20.209Z,95636.19
2022-10-31T18:35:46.839Z,95630.53
2022-10-31T18:38:13.470Z,95636.66
2022-10-31T18:40:40.161Z,95628.00
2022-10-31T18:43:06.784Z,95630.31
2022-10-31T18:45:45.879Z,95622.97
2022-10-31T18:48:15.751Z,95624.88
2022-10-31T18:50:42.978Z,95620.31
2022-10-31T18:53:09.684Z,95637.50
2022-10-31T18:55:45.713Z,95626.25
2022-10-31T18:58:16.996Z,95631.00
2022-10-31T19:00:43.807Z,95632.63
2022-10-31T19:03:10.471Z,95641.59
2022-10-31T19:05:37.157Z,95638.41
2022-10-31T19:08:04.354Z,95635.84
2022-10-31T19:10:31.313Z,95612.00
2022-10-31T19:12:58.018Z,95620.69
2022-10-31T19:15:26.124Z,95632.09
2022-10-31T19:17:52.689Z,95626.88
2022-10-31T19:20:19.555Z,95632.03
2022-10-31T19:22:46.284Z,95630.91
2022-10-31T19:25:13.126Z,95636.69
2022-10-31T19:27:39.975Z,95642.50
2022-10-31T19:30:07.705Z,95641.25
2022-10-31T19:32:34.612Z,95646.00
2022-10-31T19:35:01.303Z,95641.34
2022-10-31T19:37:27.966Z,95641.88
2022-10-31T19:39:54.713Z,95644.97
2022-10-31T19:42:21.324Z,95641.81
2022-10-31T19:44:47.933Z,95643.25
2022-10-31T19:47:15.519Z,95653.16
2022-10-31T19:49:42.065Z,95652.00
2022-10-31T19:52:08.623Z,95657.66
2022-10-31T19:54:35.335Z,95649.13
2022-10-31T19:57:01.913Z,95657.69
2022-10-31T19:59:28.728Z,95648.44
2022-10-31T20:01:55.400Z,95664.41
2022-10-31T20:04:22.108Z,95667.16
2022-10-31T20:06:48.758Z,95668.19
2022-10-31T20:09:16.952Z,95652.13
2022-10-31T20:11:45.727Z,95658.97
2022-10-31T20:14:14.492Z,95660.13
2022-10-31T20:16:41.630Z,95645.72
2022-10-31T20:19:08.947Z,95664.78
2022-10-31T20:21:37.914Z,95668.47
2022-10-31T20:24:07.790Z,95667.88
2022-10-31T20:26:35.470Z,95672.28
2022-10-31T20:29:03.641Z,95670.13
2022-10-31T20:31:33.671Z,95670.50
2022-10-31T20:34:00.549Z,95663.66
2022-10-31T20:36:29.534Z,95683.72
2022-10-31T20:38:56.138Z,95668.25
2022-10-31T20:41:22.849Z,95679.66
2022-10-31T20:43:49.495Z,95690.75
2022-10-31T20:46:17.863Z,95691.53
2022-10-31T20:48:44.931Z,95685.59
2022-10-31T20:51:21.155Z,95689.84
2022-10-31T20:53:49.156Z,95684.66
2022-10-31T20:56:18.201Z,95692.75
2022-10-31T20:58:45.056Z,95680.75
2022-10-31T21:01:23.097Z,95693.63
2022-10-31T21:03:50.400Z,95691.34
2022-10-31T21:06:18.694Z,95697.91
2022-10-31T21:08:45.812Z,95695.00
2022-10-31T21:11:17.997Z,95696.19
2022-10-31T21:13:46.008Z,95701.97
2022-10-31T21:16:18.603Z,95697.72
2022-10-31T21:18:46.844Z,95700.31
2022-10-31T21:21:19.436Z,95692.09
2022-10-31T21:23:46.954Z,95683.44
2022-10-31T21:26:21.715Z,95685.69
2022-10-31T21:28:49.717Z,95693.28
2022-10-31T21:31:17.839Z,95689.63
2022-10-31T21:33:45.762Z,95686.13
2022-10-31T21:36:13.422Z,95693.56
2022-10-31T21:38:40.778Z,95689.47
2022-10-31T21:41:13.529Z,95693.44
2022-10-31T21:43:43.177Z,95702.53
2022-10-31T21:46:15.607Z,95687.22
2022-10-31T21:48:43.533Z,95690.25
2022-10-31T21:51:14.105Z,95695.84
2022-10-31T21:54:04.312Z,95682.78
2022-10-31T21:56:31.487Z,95696.75
2022-10-31T21:58:58.448Z,95699.78
2022-10-31T22:01:27.501Z,95685.06
2022-10-31T22:03:54.763Z,95694.25
2022-10-31T22:06:21.943Z,95698.97
2022-10-31T22:08:48.994Z,95704.16
2022-10-31T22:11:17.608Z,95708.25
2022-10-31T22:13:47.060Z,95710.22
2022-10-31T22:16:16.100Z,95712.94
2022-10-31T22:18:43.800Z,95700.84
2022-10-31T22:21:19.606Z,95712.19
2022-10-31T22:23:53.879Z,95710.94
2022-10-31T22:26:21.356Z,95704.69
2022-10-31T22:28:50.847Z,95709.84
2022-10-31T22:31:20.965Z,95703.00
2022-10-31T22:33:48.308Z,95715.84
2022-10-31T22:36:19.860Z,95714.50
2022-10-31T22:38:47.781Z,95717.19
2022-10-31T22:41:17.139Z,95711.41
2022-10-31T22:43:44.012Z,95715.16
2022-10-31T22:46:13.759Z,95701.72
2022-10-31T22:48:49.827Z,95718.84
2022-10-31T22:51:19.517Z,95719.75
2022-10-31T22:53:46.950Z,95705.00
2022-10-31T22:56:19.763Z,95717.28
2022-10-31T22:58:47.607Z,95714.78
2022-10-31T23:01:20.217Z,95708.75
2022-10-31T23:03:47.170Z,95720.78
2022-10-31T23:06:16.479Z,95714.13
2022-10-31T23:08:43.773Z,95720.09
2022-10-31T23:11:26.904Z,95704.69
2022-10-31T23:14:15.902Z,95704.47
2022-10-31T23:16:53.945Z,95709.03
2022-10-31T23:19:27.790Z,95711.47
2022-10-31T23:22:00.154Z,95705.50
2022-10-31T23:24:33.745Z,95712.91
2022-10-31T23:27:08.531Z,95710.19
2022-10-31T23:29:51.494Z,95706.84
2022-10-31T23:32:28.316Z,95712.72
2022-10-31T23:34:57.372Z,95717.41
2022-10-31T23:37:26.813Z,95710.56
2022-10-31T23:39:53.716Z,95706.63
2022-10-31T23:42:20.899Z,95717.41
2022-10-31T23:44:49.016Z,95704.66
2022-10-31T23:47:16.681Z,95708.47
2022-10-31T23:49:43.450Z,95704.97
2022-10-31T23:52:10.496Z,95697.75
2022-10-31T23:54:37.640Z,95704.22
2022-10-31T23:57:04.733Z,95699.97
2022-10-31T23:59:31.471Z,95693.56
